Portada
METAR-TAF:

METAR-TAF

Aeropuertos :

Aeropuerto Internacional Rey Husein

Aqaba, Jordania

latitud: 29-38N, longitud: 035-01E, altitud: 53 m

Observación

El informe se hizo hace 38 minutos, a las 16:00 UTC
Viento 13 kt del norte-noroeste
Temperatura 39°C
Humedad 21%
Presión 1003 hPa
Visibilidad 10 km o más
sin nubes por debajo de 1500 m y sin presencia de cumulonimbus.

METAR: OJAQ 091600Z 33013KT CAVOK 39/13 Q1003 NOSIG

Hora: 19:38 (16:38 UTC)

Pronóstico

El informe se hizo hace 5 horas y 38 minutos, a las 11:00 UTC
Pronóstico válido del 09 a las 12 UTC al 10 a las 18 UTC
Viento 10 kt del norte
Visibilidad 10 km o más
sin nubes por debajo de 1500 m y sin presencia de cumulonimbus.
Probabilidad 30% :
Temporalmente
del 09 a las 12 UTC al 09 a las 16 UTC
Viento 16 kt del norte
Visibilidad: 5000 m
Ventisca alta de polvo

TAF: OJAQ 091100Z 0912/1018 36010KT CAVOK PROB30 TEMPO 0912/0916 35016KT 5000 BLDU

Observaciones y pronósticos meteorológicos de más de 4000 aeropuertos (mensajes METAR y TAF).

Los puntos amarillos y rojos representan las estaciones disponibles.

Ponga el ratón en el punto deseado para ver el nombre de la estación.

Haga clic para ver las observaciones y los pronósticos meteorológicos.

Para cambiar el mapa : haga clic en los botones verdes con una cruz de color negro para hacer un zoom, en el botón verde con un guión para alejar o en las flechas verdes para mapas adyacentes.


METAR-TAF: